createdAt,value
2018-04-28T00:01:22.369Z,1.30
2018-04-28T00:03:34.337Z,1.67
2018-04-28T00:05:45.445Z,1.60
2018-04-28T00:07:56.547Z,1.40
2018-04-28T00:10:07.634Z,1.47
2018-04-28T00:12:18.737Z,1.70
2018-04-28T00:14:29.846Z,1.60
2018-04-28T00:16:48.882Z,1.63
2018-04-28T00:19:03.990Z,1.50
2018-04-28T00:21:15.051Z,1.00
2018-04-28T00:23:26.258Z,1.53
2018-04-28T00:25:39.922Z,1.37
2018-04-28T00:28:02.042Z,1.40
2018-04-28T00:30:13.178Z,1.20
2018-04-28T00:32:24.310Z,1.70
2018-04-28T00:37:14.955Z,1.27
2018-04-28T00:39:26.148Z,1.20
2018-04-28T00:41:37.187Z,1.50
2018-04-28T00:43:48.365Z,1.43
2018-04-28T00:46:02.057Z,1.17
2018-04-28T00:48:24.122Z,1.40
2018-04-28T00:50:46.035Z,1.70
2018-04-28T00:52:57.086Z,1.50
2018-04-28T00:55:14.145Z,1.70
2018-04-28T01:00:22.345Z,1.63
2018-04-28T01:02:33.422Z,2.03
2018-04-28T01:04:45.469Z,2.03
2018-04-28T01:06:56.561Z,1.37
2018-04-28T01:09:07.616Z,2.20
2018-04-28T01:11:18.746Z,1.63
2018-04-28T01:13:39.869Z,1.93
2018-04-28T01:15:50.975Z,1.77
2018-04-28T01:18:07.142Z,1.30
2018-04-28T01:20:18.229Z,1.63
2018-04-28T01:22:33.127Z,1.67
2018-04-28T01:24:47.151Z,1.77
2018-04-28T01:30:04.583Z,1.60
2018-04-28T01:32:24.571Z,1.70
2018-04-28T01:34:51.325Z,1.40
2018-04-28T01:37:12.174Z,1.50
2018-04-28T01:39:27.025Z,1.43
2018-04-28T01:41:55.993Z,1.40
2018-04-28T01:44:10.846Z,1.70
2018-04-28T01:46:24.718Z,1.60
2018-04-28T01:48:53.372Z,1.90
2018-04-28T01:51:12.277Z,1.90
2018-04-28T01:53:24.165Z,2.00
2018-04-28T01:55:35.238Z,2.20
2018-04-28T01:58:02.984Z,1.93
2018-04-28T02:00:14.185Z,2.03
2018-04-28T02:02:26.087Z,2.10
2018-04-28T02:04:37.161Z,1.70
2018-04-28T02:06:55.473Z,1.57
2018-04-28T02:09:21.530Z,1.70
2018-04-28T02:11:42.602Z,1.63
2018-04-28T02:16:37.302Z,1.63
2018-04-28T02:19:00.734Z,1.90
2018-04-28T02:24:07.339Z,1.90
2018-04-28T02:26:18.452Z,1.80
2018-04-28T02:28:36.342Z,1.90
2018-04-28T02:30:48.385Z,1.70
2018-04-28T02:33:01.345Z,2.00
2018-04-28T02:35:13.337Z,1.67
2018-04-28T02:37:39.603Z,1.90
2018-04-28T02:39:56.691Z,1.80
2018-04-28T02:42:07.767Z,1.80
2018-04-28T02:44:20.647Z,1.80
2018-04-28T02:46:46.624Z,1.57
2018-04-28T02:49:02.775Z,1.40
2018-04-28T02:53:56.300Z,1.83
2018-04-28T02:56:23.169Z,1.67
2018-04-28T02:58:35.138Z,1.60
2018-04-28T03:01:01.580Z,1.23
2018-04-28T03:03:24.750Z,1.17
2018-04-28T03:05:37.858Z,1.90
2018-04-28T03:10:54.922Z,1.30
2018-04-28T03:13:13.811Z,1.70
2018-04-28T03:15:24.942Z,1.80
2018-04-28T03:17:37.050Z,1.80
2018-04-28T03:19:49.145Z,1.30
2018-04-28T03:22:00.230Z,1.60
2018-04-28T03:27:13.759Z,1.40
2018-04-28T03:29:28.661Z,1.50
2018-04-28T03:31:39.730Z,1.50
2018-04-28T03:36:41.616Z,2.07
2018-04-28T03:39:03.582Z,1.30
2018-04-28T03:41:24.091Z,1.47
2018-04-28T03:46:23.028Z,1.70
2018-04-28T03:48:35.746Z,1.50
2018-04-28T03:50:47.713Z,1.40
2018-04-28T03:53:03.579Z,1.40
2018-04-28T03:55:14.650Z,1.37
2018-04-28T03:57:37.958Z,1.90
2018-04-28T04:00:01.334Z,1.77
2018-04-28T04:02:24.703Z,1.47
2018-04-28T04:04:36.707Z,1.50
2018-04-28T04:07:06.529Z,1.80
2018-04-28T04:09:22.470Z,1.40
2018-04-28T04:14:45.334Z,1.60
2018-04-28T04:17:30.998Z,1.50
2018-04-28T04:20:04.243Z,1.70
2018-04-28T04:22:24.363Z,2.07
2018-04-28T04:24:46.902Z,1.57
2018-04-28T04:27:05.933Z,1.53
2018-04-28T04:32:22.159Z,1.73
2018-04-28T04:37:11.186Z,1.60
2018-04-28T04:39:24.102Z,2.03
2018-04-28T04:41:45.399Z,2.10
2018-04-28T04:44:02.351Z,2.10
2018-04-28T04:49:19.853Z,2.30
2018-04-28T04:54:11.352Z,1.50
2018-04-28T04:56:40.192Z,2.00
2018-04-28T04:59:01.333Z,1.90
2018-04-28T05:01:21.494Z,2.40
2018-04-28T05:06:51.875Z,2.20
2018-04-28T05:09:23.761Z,1.70
2018-04-28T05:14:33.523Z,1.70
2018-04-28T05:17:10.420Z,2.30
2018-04-28T05:19:33.653Z,2.07
2018-04-28T05:24:31.140Z,2.37
2018-04-28T05:26:55.099Z,2.10
2018-04-28T05:32:11.339Z,1.70
2018-04-28T05:34:34.102Z,2.10
2018-04-28T05:39:59.467Z,1.87
2018-04-28T05:45:01.964Z,1.87
2018-04-28T05:50:08.874Z,2.10
2018-04-28T05:52:25.902Z,1.67
2018-04-28T05:57:43.481Z,2.13
2018-04-28T06:00:04.494Z,2.00
2018-04-28T06:02:21.662Z,1.50
2018-04-28T06:04:41.503Z,2.47
2018-04-28T06:07:04.861Z,2.07
2018-04-28T06:09:19.560Z,2.20
2018-04-28T06:11:43.576Z,2.00
2018-04-28T06:14:06.753Z,2.23
2018-04-28T06:16:38.539Z,2.50
2018-04-28T06:21:38.409Z,2.27
2018-04-28T06:23:49.512Z,2.10
2018-04-28T06:26:00.636Z,2.10
2018-04-28T06:28:11.654Z,2.83
2018-04-28T06:30:22.696Z,2.40
2018-04-28T06:32:33.760Z,2.70
2018-04-28T06:34:44.858Z,1.97
2018-04-28T06:36:57.837Z,2.23
2018-04-28T06:39:08.921Z,2.57
2018-04-28T06:41:20.029Z,2.13
2018-04-28T06:43:31.196Z,2.27
2018-04-28T06:45:42.254Z,2.30
2018-04-28T06:47:53.290Z,2.00
2018-04-28T06:50:04.367Z,2.20
2018-04-28T06:52:15.457Z,1.93
2018-04-28T06:54:26.541Z,2.10
2018-04-28T06:56:37.706Z,2.10
2018-04-28T06:58:49.041Z,1.70
2018-04-28T07:01:00.113Z,1.60
2018-04-28T07:03:11.332Z,2.33
2018-04-28T07:05:22.401Z,2.07
2018-04-28T07:07:33.463Z,1.90
2018-04-28T07:09:44.597Z,1.20
2018-04-28T07:11:55.699Z,2.20
2018-04-28T07:14:06.862Z,2.43
2018-04-28T07:16:17.949Z,2.13
2018-04-28T07:18:29.116Z,2.33
2018-04-28T07:20:40.216Z,2.20
2018-04-28T07:22:51.310Z,1.70
2018-04-28T07:25:02.388Z,2.00
2018-04-28T07:27:13.454Z,1.83
2018-04-28T07:29:24.540Z,1.90
2018-04-28T07:31:35.679Z,2.63
2018-04-28T07:33:46.825Z,2.23
2018-04-28T07:35:57.921Z,2.37
2018-04-28T07:38:09.169Z,2.53
2018-04-28T07:40:20.293Z,2.00
2018-04-28T07:42:31.461Z,2.50
2018-04-28T07:44:42.530Z,2.40
2018-04-28T07:46:53.653Z,2.90
2018-04-28T07:49:04.731Z,1.90
2018-04-28T07:51:15.798Z,2.73
2018-04-28T07:53:27.013Z,2.23
2018-04-28T07:55:38.085Z,2.40
2018-04-28T07:57:49.210Z,2.80
2018-04-28T08:00:00.337Z,2.33
2018-04-28T08:02:11.466Z,3.00
2018-04-28T08:04:22.593Z,2.40
2018-04-28T08:06:33.734Z,2.47
2018-04-28T08:08:44.876Z,1.50
2018-04-28T08:10:55.961Z,2.10
2018-04-28T08:13:07.037Z,2.10
2018-04-28T08:15:18.210Z,2.13
2018-04-28T08:17:29.275Z,2.20
2018-04-28T08:19:41.293Z,2.20
2018-04-28T08:21:52.371Z,2.53
2018-04-28T08:24:03.594Z,2.57
2018-04-28T08:26:14.653Z,1.57
2018-04-28T08:28:25.741Z,2.57
2018-04-28T08:30:37.047Z,2.00
2018-04-28T08:32:48.501Z,2.40
2018-04-28T08:34:59.704Z,2.40
2018-04-28T08:37:10.890Z,1.90
2018-04-28T08:39:21.922Z,2.20
2018-04-28T08:41:33.014Z,1.83
2018-04-28T08:43:44.176Z,2.27
2018-04-28T08:45:55.422Z,2.17
2018-04-28T08:48:06.488Z,2.10
2018-04-28T08:50:17.602Z,2.10
2018-04-28T08:52:28.706Z,2.47
2018-04-28T08:54:39.902Z,2.53
2018-04-28T08:56:51.040Z,2.30
2018-04-28T08:59:02.134Z,2.90
2018-04-28T09:01:13.217Z,2.23
2018-04-28T09:03:25.573Z,2.33
2018-04-28T09:05:36.706Z,2.60
2018-04-28T09:07:47.971Z,2.57
2018-04-28T09:09:59.182Z,2.80
2018-04-28T09:12:10.291Z,1.73
2018-04-28T09:14:21.487Z,2.30
2018-04-28T09:16:32.593Z,2.33
2018-04-28T09:18:43.774Z,2.10
2018-04-28T09:20:54.946Z,2.17
2018-04-28T09:23:06.145Z,2.30
2018-04-28T09:25:17.336Z,2.67
2018-04-28T09:27:28.594Z,2.77
2018-04-28T09:29:39.709Z,2.80
2018-04-28T09:31:50.810Z,1.93
2018-04-28T09:34:01.958Z,2.40
2018-04-28T09:36:13.030Z,2.20
2018-04-28T09:38:24.145Z,2.40
2018-04-28T09:40:35.234Z,2.67
2018-04-28T09:42:46.402Z,2.07
2018-04-28T09:44:57.533Z,3.20
2018-04-28T09:47:08.610Z,3.10
2018-04-28T09:49:19.886Z,2.10
2018-04-28T09:51:30.982Z,2.37
2018-04-28T09:53:42.081Z,3.20
2018-04-28T09:55:53.173Z,2.97
2018-04-28T09:58:06.275Z,3.17
2018-04-28T10:00:29.868Z,2.13
2018-04-28T10:02:41.001Z,3.00
2018-04-28T10:04:52.083Z,3.47
2018-04-28T10:07:03.176Z,3.07
2018-04-28T10:09:14.239Z,2.63
2018-04-28T10:11:25.365Z,2.40
2018-04-28T10:13:36.466Z,2.30
2018-04-28T10:15:47.700Z,2.00
2018-04-28T10:17:58.819Z,2.37
2018-04-28T10:20:09.998Z,2.97
2018-04-28T10:22:21.069Z,3.20
2018-04-28T10:24:32.141Z,2.87
2018-04-28T10:26:43.278Z,2.73
2018-04-28T10:28:54.354Z,2.67
2018-04-28T10:31:05.434Z,2.80
2018-04-28T10:33:16.582Z,2.30
2018-04-28T10:35:27.655Z,2.77
2018-04-28T10:37:38.720Z,3.03
2018-04-28T10:39:49.860Z,2.70
2018-04-28T10:42:00.945Z,2.17
2018-04-28T10:44:12.103Z,2.87
2018-04-28T10:46:23.154Z,3.27
2018-04-28T10:48:34.263Z,2.90
2018-04-28T10:50:45.421Z,3.20
2018-04-28T10:52:56.485Z,2.87
2018-04-28T10:55:07.658Z,3.07
2018-04-28T10:57:18.769Z,2.40
2018-04-28T10:59:30.010Z,2.40
2018-04-28T11:01:41.129Z,3.00
2018-04-28T11:03:52.222Z,2.67
2018-04-28T11:06:03.362Z,2.53
2018-04-28T11:08:14.449Z,3.23
2018-04-28T11:10:25.623Z,2.70
2018-04-28T11:12:36.746Z,2.87
2018-04-28T11:14:47.928Z,2.47
2018-04-28T11:16:59.051Z,2.50
2018-04-28T11:19:10.183Z,2.93
2018-04-28T11:21:21.321Z,2.83
2018-04-28T11:23:32.425Z,2.17
2018-04-28T11:25:43.579Z,2.50
2018-04-28T11:27:54.590Z,2.77
2018-04-28T11:30:05.770Z,2.43
2018-04-28T11:32:16.916Z,2.30
2018-04-28T11:34:28.018Z,2.20
2018-04-28T11:36:39.114Z,2.00
2018-04-28T11:38:50.333Z,2.17
2018-04-28T11:41:01.426Z,2.07
2018-04-28T11:43:12.567Z,2.30
2018-04-28T11:45:23.646Z,2.73
2018-04-28T11:47:34.734Z,2.40
2018-04-28T11:49:45.842Z,2.23
2018-04-28T11:51:56.999Z,1.90
2018-04-28T11:54:08.232Z,2.57
2018-04-28T11:56:19.325Z,2.17
2018-04-28T11:58:30.438Z,2.50
2018-04-28T12:00:41.534Z,2.30
2018-04-28T12:02:52.600Z,2.40
2018-04-28T12:05:03.763Z,3.20
2018-04-28T12:07:14.777Z,2.03
2018-04-28T12:09:25.999Z,2.70
2018-04-28T12:11:37.106Z,2.67
2018-04-28T12:13:48.393Z,2.70
2018-04-28T12:15:59.489Z,2.93
2018-04-28T12:18:10.641Z,2.80
2018-04-28T12:20:21.752Z,2.83
2018-04-28T12:22:32.838Z,2.53
2018-04-28T12:24:44.291Z,3.33
2018-04-28T12:26:55.386Z,2.70
2018-04-28T12:29:06.469Z,2.97
2018-04-28T12:31:17.569Z,2.50
2018-04-28T12:33:28.735Z,2.53
2018-04-28T12:35:40.819Z,2.60
2018-04-28T12:37:51.942Z,2.57
2018-04-28T12:40:03.016Z,2.87
2018-04-28T12:42:14.111Z,2.77
2018-04-28T12:44:25.222Z,2.43
2018-04-28T12:46:36.397Z,3.10
2018-04-28T12:48:47.504Z,2.77
2018-04-28T12:50:58.637Z,2.83
2018-04-28T12:53:09.748Z,3.07
2018-04-28T12:55:20.845Z,2.60
2018-04-28T12:57:32.011Z,2.90
2018-04-28T12:59:43.036Z,2.57
2018-04-28T13:01:54.281Z,2.63
2018-04-28T13:04:05.357Z,3.17
2018-04-28T13:06:16.634Z,2.53
2018-04-28T13:08:27.778Z,3.03
2018-04-28T13:10:38.973Z,2.90
2018-04-28T13:12:50.036Z,2.93
2018-04-28T13:15:01.156Z,2.70
2018-04-28T13:17:12.251Z,2.87
2018-04-28T13:19:23.333Z,2.43
2018-04-28T13:21:34.525Z,2.97
2018-04-28T13:23:45.597Z,3.23
2018-04-28T13:25:56.782Z,3.27
2018-04-28T13:28:07.950Z,2.90
2018-04-28T13:30:19.126Z,2.57
2018-04-28T13:32:30.321Z,3.20
2018-04-28T13:34:41.370Z,3.83
2018-04-28T13:36:52.454Z,2.93
2018-04-28T13:39:03.554Z,2.93
2018-04-28T13:41:14.613Z,3.30
2018-04-28T13:43:25.689Z,2.73
2018-04-28T13:45:36.877Z,2.93
2018-04-28T13:47:48.161Z,3.00
2018-04-28T13:49:59.254Z,2.97
2018-04-28T13:52:10.377Z,2.50
2018-04-28T13:54:21.560Z,2.43
2018-04-28T13:56:32.634Z,2.60
2018-04-28T13:58:43.756Z,2.30
2018-04-28T14:00:54.900Z,2.97
2018-04-28T14:03:05.935Z,2.63
2018-04-28T14:05:17.185Z,2.63
2018-04-28T14:07:28.417Z,2.63
2018-04-28T14:09:39.599Z,2.73
2018-04-28T14:11:50.725Z,2.40
2018-04-28T14:14:01.773Z,2.83
2018-04-28T14:16:12.870Z,2.30
2018-04-28T14:18:23.927Z,2.37
2018-04-28T14:20:35.842Z,2.27
2018-04-28T14:22:47.002Z,2.80
2018-04-28T14:24:58.095Z,2.70
2018-04-28T14:27:09.189Z,2.60
2018-04-28T14:29:20.274Z,2.50
2018-04-28T14:31:31.412Z,2.47
2018-04-28T14:33:42.526Z,2.47
2018-04-28T14:35:53.619Z,2.70
2018-04-28T14:38:04.758Z,2.30
2018-04-28T14:40:15.861Z,2.13
2018-04-28T14:42:38.990Z,2.30
2018-04-28T14:44:50.086Z,2.50
2018-04-28T14:47:01.178Z,2.80
2018-04-28T14:49:12.250Z,2.23
2018-04-28T14:51:23.315Z,2.77
2018-04-28T14:53:34.422Z,2.13
2018-04-28T14:55:45.485Z,2.27
2018-04-28T14:57:56.684Z,2.30
2018-04-28T15:00:07.760Z,2.70
2018-04-28T15:02:18.910Z,2.20
2018-04-28T15:04:29.997Z,3.10
2018-04-28T15:06:41.119Z,2.30
2018-04-28T15:08:52.247Z,2.70
2018-04-28T15:11:03.301Z,2.60
2018-04-28T15:13:14.448Z,2.70
2018-04-28T15:15:25.547Z,3.10
2018-04-28T15:17:36.794Z,2.43
2018-04-28T15:19:47.913Z,3.00
2018-04-28T15:21:59.098Z,2.63
2018-04-28T15:24:10.274Z,2.37
2018-04-28T15:26:21.364Z,2.50
2018-04-28T15:28:32.536Z,2.67
2018-04-28T15:30:43.562Z,2.30
2018-04-28T15:32:54.640Z,2.30
2018-04-28T15:35:05.715Z,2.10
2018-04-28T15:37:16.854Z,2.27
2018-04-28T15:39:27.970Z,2.50
2018-04-28T15:41:39.073Z,3.00
2018-04-28T15:43:50.197Z,3.00
2018-04-28T15:46:01.281Z,2.90
2018-04-28T15:48:12.419Z,2.00
2018-04-28T15:50:23.541Z,2.50
2018-04-28T15:52:34.666Z,2.60
2018-04-28T15:54:45.763Z,2.60
2018-04-28T15:56:57.017Z,2.47
2018-04-28T15:59:08.092Z,2.87
2018-04-28T16:01:19.216Z,2.40
2018-04-28T16:03:30.310Z,2.37
2018-04-28T16:05:41.459Z,2.83
2018-04-28T16:07:52.546Z,2.33
2018-04-28T16:10:03.625Z,2.27
2018-04-28T16:12:14.741Z,2.90
2018-04-28T16:14:25.829Z,2.40
2018-04-28T16:16:36.972Z,2.70
2018-04-28T16:18:48.051Z,3.00
2018-04-28T16:20:59.133Z,2.80
2018-04-28T16:23:10.247Z,2.93
2018-04-28T16:25:21.382Z,2.93
2018-04-28T16:27:32.523Z,3.10
2018-04-28T16:29:43.577Z,3.10
2018-04-28T16:31:54.777Z,3.40
2018-04-28T16:34:05.957Z,2.77
2018-04-28T16:36:17.059Z,3.27
2018-04-28T16:38:28.157Z,2.87
2018-04-28T16:40:39.409Z,2.70
2018-04-28T16:42:50.510Z,3.23
2018-04-28T16:45:01.565Z,2.53
2018-04-28T16:47:12.718Z,2.87
2018-04-28T16:49:23.777Z,3.10
2018-04-28T16:51:34.905Z,3.40
2018-04-28T16:53:46.031Z,3.43
2018-04-28T16:55:57.197Z,2.90
2018-04-28T16:58:08.301Z,2.83
2018-04-28T17:00:19.476Z,2.47
2018-04-28T17:02:30.533Z,2.97
2018-04-28T17:04:41.676Z,2.40
2018-04-28T17:06:52.774Z,2.90
2018-04-28T17:09:03.882Z,2.90
2018-04-28T17:11:15.118Z,3.63
2018-04-28T17:13:26.229Z,2.80
2018-04-28T17:15:37.325Z,2.37
2018-04-28T17:17:52.486Z,1.90
2018-04-28T17:20:03.650Z,2.23
2018-04-28T17:22:14.742Z,2.20
2018-04-28T17:24:25.789Z,2.77
2018-04-28T17:26:36.875Z,2.20
2018-04-28T17:28:47.989Z,2.90
2018-04-28T17:30:59.269Z,3.37
2018-04-28T17:33:10.325Z,2.47
2018-04-28T17:35:21.522Z,2.23
2018-04-28T17:37:32.621Z,2.40
2018-04-28T17:39:43.766Z,2.60
2018-04-28T17:41:54.886Z,2.90
2018-04-28T17:44:05.962Z,2.60
2018-04-28T17:46:17.018Z,2.57
2018-04-28T17:48:28.105Z,2.70
2018-04-28T17:50:39.233Z,2.50
2018-04-28T17:52:50.325Z,2.87
2018-04-28T17:55:02.525Z,2.50
2018-04-28T17:57:13.625Z,2.67
2018-04-28T17:59:24.730Z,2.67
2018-04-28T18:01:35.822Z,3.03
2018-04-28T18:03:47.010Z,2.37
2018-04-28T18:05:58.149Z,2.43
2018-04-28T18:08:09.319Z,3.40
2018-04-28T18:10:20.445Z,2.87
2018-04-28T18:12:31.704Z,2.97
2018-04-28T18:14:42.896Z,3.10
2018-04-28T18:16:53.939Z,2.87
2018-04-28T18:19:05.082Z,2.70
2018-04-28T18:21:16.150Z,3.03
2018-04-28T18:23:27.229Z,2.53
2018-04-28T18:25:38.334Z,2.97
2018-04-28T18:27:49.431Z,2.90
2018-04-28T18:30:00.526Z,3.63
2018-04-28T18:32:11.620Z,5.40
2018-04-28T18:34:22.698Z,3.93
2018-04-28T18:36:33.801Z,4.67
2018-04-28T18:38:44.914Z,3.30
2018-04-28T18:40:56.084Z,2.87
2018-04-28T18:43:07.163Z,2.70
2018-04-28T18:45:18.269Z,3.00
2018-04-28T18:47:29.401Z,3.30
2018-04-28T18:49:40.493Z,3.23
2018-04-28T18:51:51.585Z,3.17
2018-04-28T18:54:02.700Z,2.80
2018-04-28T18:56:13.789Z,2.63
2018-04-28T18:58:24.874Z,3.17
2018-04-28T19:00:36.058Z,2.97
2018-04-28T19:02:47.234Z,3.57
2018-04-28T19:04:58.314Z,6.33
2018-04-28T19:07:10.002Z,5.30
2018-04-28T19:09:21.090Z,6.83
2018-04-28T19:11:32.280Z,15.17
2018-04-28T19:13:43.345Z,7.63
2018-04-28T19:15:54.476Z,6.27
2018-04-28T19:18:05.594Z,6.57
2018-04-28T19:20:16.698Z,4.57
2018-04-28T19:22:27.869Z,4.73
2018-04-28T19:24:39.005Z,4.10
2018-04-28T19:26:50.257Z,3.83
2018-04-28T19:29:01.485Z,3.70
2018-04-28T19:31:12.607Z,4.03
2018-04-28T19:33:23.752Z,3.40
2018-04-28T19:35:34.841Z,4.10
2018-04-28T19:37:46.129Z,4.20
2018-04-28T19:39:57.194Z,3.70
2018-04-28T19:42:08.310Z,3.40
2018-04-28T19:44:19.454Z,3.53
2018-04-28T19:46:30.559Z,3.43
2018-04-28T19:48:41.744Z,3.70
2018-04-28T19:50:52.839Z,4.03
2018-04-28T19:53:03.990Z,3.50
2018-04-28T19:55:15.140Z,3.00
2018-04-28T19:57:26.249Z,3.30
2018-04-28T19:59:37.481Z,3.40
2018-04-28T20:01:48.609Z,3.73
2018-04-28T20:03:59.800Z,4.03
2018-04-28T20:06:10.890Z,3.47
2018-04-28T20:08:21.986Z,3.83
2018-04-28T20:10:33.197Z,3.93
2018-04-28T20:12:44.287Z,3.10
2018-04-28T20:14:55.382Z,3.37
2018-04-28T20:17:06.456Z,3.10
2018-04-28T20:19:17.585Z,3.90
2018-04-28T20:21:28.670Z,3.77
2018-04-28T20:23:51.829Z,3.83
2018-04-28T20:26:03.020Z,5.13
2018-04-28T20:28:14.109Z,4.37
2018-04-28T20:30:25.210Z,3.63
2018-04-28T20:32:36.318Z,4.53
2018-04-28T20:34:47.431Z,4.20
2018-04-28T20:36:58.557Z,4.83
2018-04-28T20:39:09.734Z,4.30
2018-04-28T20:41:20.834Z,4.97
2018-04-28T20:43:31.917Z,4.30
2018-04-28T20:45:43.013Z,4.40
2018-04-28T20:47:54.104Z,4.33
2018-04-28T20:50:05.180Z,3.60
2018-04-28T20:52:16.405Z,4.70
2018-04-28T20:54:27.574Z,4.57
2018-04-28T20:56:38.841Z,4.00
2018-04-28T20:58:50.018Z,4.20
2018-04-28T21:01:01.105Z,3.63
2018-04-28T21:03:12.266Z,4.53
2018-04-28T21:05:23.350Z,4.50
2018-04-28T21:07:34.429Z,4.77
2018-04-28T21:09:45.521Z,5.00
2018-04-28T21:11:56.599Z,4.67
2018-04-28T21:14:07.774Z,4.60
2018-04-28T21:16:18.856Z,5.23
2018-04-28T21:18:29.979Z,4.73
2018-04-28T21:20:41.063Z,5.17
2018-04-28T21:22:52.310Z,5.00
2018-04-28T21:25:03.420Z,5.07
2018-04-28T21:27:14.524Z,4.30
2018-04-28T21:29:25.671Z,4.83
2018-04-28T21:31:36.754Z,3.67
2018-04-28T21:33:47.913Z,4.53
2018-04-28T21:35:58.996Z,5.17
2018-04-28T21:38:10.195Z,4.53
2018-04-28T21:40:21.275Z,5.10
2018-04-28T21:42:32.398Z,4.90
2018-04-28T21:44:43.491Z,4.83
2018-04-28T21:46:54.624Z,4.93
2018-04-28T21:49:05.719Z,4.63
2018-04-28T21:51:16.764Z,4.20
2018-04-28T21:53:27.946Z,3.17
2018-04-28T21:55:39.092Z,3.23
2018-04-28T21:57:50.329Z,3.60
2018-04-28T22:00:01.474Z,3.53
2018-04-28T22:02:12.611Z,3.37
2018-04-28T22:04:23.689Z,3.47
2018-04-28T22:06:34.833Z,3.00
2018-04-28T22:08:45.925Z,2.90
2018-04-28T22:10:56.997Z,3.10
2018-04-28T22:13:08.199Z,2.83
2018-04-28T22:15:19.443Z,2.40
2018-04-28T22:17:30.457Z,2.70
2018-04-28T22:19:41.537Z,2.40
2018-04-28T22:21:52.684Z,2.17
2018-04-28T22:24:03.755Z,2.77
2018-04-28T22:26:14.848Z,2.57
2018-04-28T22:28:25.922Z,2.30
2018-04-28T22:30:36.985Z,2.47
2018-04-28T22:32:48.113Z,2.80
2018-04-28T22:34:59.293Z,2.50
2018-04-28T22:37:10.569Z,2.57
2018-04-28T22:39:21.626Z,2.87
2018-04-28T22:41:32.783Z,3.10
2018-04-28T22:43:43.848Z,2.07
2018-04-28T22:45:54.938Z,2.70
2018-04-28T22:48:06.093Z,2.83
2018-04-28T22:50:17.160Z,2.83
2018-04-28T22:52:28.290Z,2.83
2018-04-28T22:54:39.397Z,2.70
2018-04-28T22:56:50.508Z,3.00
2018-04-28T22:59:01.574Z,2.43
2018-04-28T23:01:12.622Z,2.43
2018-04-28T23:03:23.730Z,2.93
2018-04-28T23:05:34.841Z,2.90
2018-04-28T23:07:46.050Z,2.10
2018-04-28T23:09:57.153Z,2.70
2018-04-28T23:12:08.409Z,2.80
2018-04-28T23:14:19.510Z,2.00
2018-04-28T23:16:30.628Z,2.33
2018-04-28T23:18:41.734Z,2.67
2018-04-28T23:20:52.820Z,2.90
2018-04-28T23:23:03.885Z,2.80
2018-04-28T23:25:14.959Z,2.30
2018-04-28T23:27:26.057Z,3.20
2018-04-28T23:29:37.190Z,3.07
2018-04-28T23:31:48.354Z,2.80
2018-04-28T23:33:59.441Z,2.40
2018-04-28T23:36:10.682Z,2.97
2018-04-28T23:38:21.734Z,2.23
2018-04-28T23:40:32.797Z,2.67
2018-04-28T23:42:43.859Z,2.57
2018-04-28T23:44:54.957Z,2.50
2018-04-28T23:47:06.113Z,2.50
2018-04-28T23:49:17.218Z,2.30
2018-04-28T23:51:28.425Z,2.00
2018-04-28T23:53:39.526Z,2.10
2018-04-28T23:55:50.743Z,1.80
2018-04-28T23:58:01.794Z,1.47
